Time;durP1;ratioP1;P1;durP2;ratioP2;P2;SDS_P1;SDS_P2;PMS_P1;PMS_P2;Temp;Humidity;BMP_temperature;BMP_pressure;BME280_temperature;BME280_humidity;BME280_pressure;Samples;Min_cycle;Max_cycle;Signal;HPM_P1;HPM_P2
2022/04/22 00:00:08;;;;;;;;;;;;;;;4.86;100.00;94590.84;1025434;28;19946;-73
2022/04/22 00:00:38;;;;;;;;;;;;;;;4.86;100.00;94596.03;1028606;28;19922;-72
2022/04/22 00:01:09;;;;;;;;;;;;;;;4.85;100.00;94589.25;1024748;29;19933;-72
2022/04/22 00:01:39;;;;;;;;;;;;;;;4.86;100.00;94588.25;1021791;28;19922;-73
2022/04/22 00:02:09;;;;;;;;;;;;;;;4.84;100.00;94592.13;1019364;29;19966;-72
2022/04/22 00:02:39;;;;;;;;;;;;;;;4.87;100.00;94592.41;1019897;29;19911;-72
2022/04/22 00:03:10;;;;;;;;;;;;;;;4.86;100.00;94587.44;1023276;28;20102;-72
2022/04/22 00:03:40;;;;;;;;;;;;;;;4.85;100.00;94586.66;1024129;28;20737;-72
2022/04/22 00:04:11;;;;;;;;;;;;;;;4.84;100.00;94582.50;1027690;28;19942;-72
2022/04/22 00:04:41;;;;;;;;;;;;;;;4.86;100.00;94580.44;1023492;28;19926;-73
2022/04/22 00:05:14;;;;;;;;;;;;;;;4.87;100.00;94582.00;1027176;28;19954;-73
2022/04/22 00:05:45;;;;;;;;;;;;;;;4.87;100.00;94592.41;1023084;29;20626;-72
2022/04/22 00:06:16;;;;;;;;;;;;;;;4.87;100.00;94581.22;1024057;28;19981;-72
2022/04/22 00:06:47;;;;;;;;;;;;;;;4.88;100.00;94583.56;1026565;28;20308;-71
2022/04/22 00:07:17;;;;;;;;;;;;;;;4.85;100.00;94584.06;1019644;28;19933;-72
2022/04/22 00:07:47;;;;;;;;;;;;;;;4.86;100.00;94580.44;1023269;29;19923;-73
2022/04/22 00:08:18;;;;;;;;;;;;;;;4.85;100.00;94578.84;1020346;28;19919;-74
2022/04/22 00:08:48;;;;;;;;;;;;;;;4.84;100.00;94582.50;1023414;29;19922;-72
2022/04/22 00:09:18;;;;;;;;;;;;;;;4.85;100.00;94575.47;1015161;29;20747;-73
2022/04/22 00:09:51;;;;;;;;;;;;;;;4.84;100.00;94579.91;1016426;29;20010;-72
2022/04/22 00:10:22;;;;;;;;;;;;;;;4.84;100.00;94577.31;1015588;29;19919;-72
2022/04/22 00:11:41;;;;;;;;;;;;;;;4.79;100.00;94574.69;1023337;28;19926;-72
2022/04/22 00:12:11;;;;;;;;;;;;;;;4.78;100.00;94578.31;1025856;28;19918;-72
2022/04/22 00:12:41;;;;;;;;;;;;;;;4.78;100.00;94575.72;1027319;28;20408;-72
2022/04/22 00:13:12;;;;;;;;;;;;;;;4.80;100.00;94573.66;1023319;29;19931;-72
2022/04/22 00:13:43;;;;;;;;;;;;;;;4.83;100.00;94575.75;1019605;29;19929;-72
2022/04/22 00:14:13;;;;;;;;;;;;;;;4.82;100.00;94574.16;1023066;28;20535;-73
2022/04/22 00:14:43;;;;;;;;;;;;;;;4.82;100.00;94574.16;1019400;29;19914;-72
2022/04/22 00:15:14;;;;;;;;;;;;;;;4.81;100.00;94572.63;1023630;28;20471;-72
2022/04/22 00:15:44;;;;;;;;;;;;;;;4.78;100.00;94573.13;1029028;28;19984;-72
2022/04/22 00:16:15;;;;;;;;;;;;;;;4.79;100.00;94566.09;1023286;29;20375;-73
2022/04/22 00:16:45;;;;;;;;;;;;;;;4.82;100.00;94576.00;1018559;28;19929;-72
2022/04/22 00:17:15;;;;;;;;;;;;;;;4.79;100.00;94571.31;1015091;29;20033;-72
2022/04/22 00:17:46;;;;;;;;;;;;;;;4.77;100.00;94570.78;1015650;29;19966;-72
2022/04/22 00:18:16;;;;;;;;;;;;;;;4.77;100.00;94570.78;1019415;29;20293;-72
2022/04/22 00:18:46;;;;;;;;;;;;;;;4.78;100.00;94573.13;1027259;28;19918;-72
2022/04/22 00:19:17;;;;;;;;;;;;;;;4.77;100.00;94570.78;1026580;28;19921;-72
2022/04/22 00:19:47;;;;;;;;;;;;;;;4.77;100.00;94560.41;1019320;29;19978;-71
2022/04/22 00:20:18;;;;;;;;;;;;;;;4.76;100.00;94569.22;1019559;29;19923;-72
2022/04/22 00:20:48;;;;;;;;;;;;;;;4.75;100.00;94567.66;1019240;29;20368;-72
2022/04/22 00:21:21;;;;;;;;;;;;;;;4.75;100.00;94565.84;1023158;29;19918;-72
2022/04/22 00:21:53;;;;;;;;;;;;;;;4.75;100.00;94562.47;1023930;28;19918;-71
2022/04/22 00:22:23;;;;;;;;;;;;;;;4.74;100.00;94561.69;1024229;28;19985;-72
2022/04/22 00:22:53;;;;;;;;;;;;;;;4.77;100.00;94563.78;1027238;28;20009;-71
2022/04/22 00:23:25;;;;;;;;;;;;;;;4.76;100.00;94561.41;1023570;29;19922;-72
2022/04/22 00:23:55;;;;;;;;;;;;;;;4.81;100.00;94562.22;1023611;28;19928;-72
2022/04/22 00:24:25;;;;;;;;;;;;;;;4.81;100.00;94561.44;1027626;28;19933;-72
2022/04/22 00:24:56;;;;;;;;;;;;;;;4.78;100.00;94556.75;1027147;28;19993;-72
2022/04/22 00:25:26;;;;;;;;;;;;;;;4.77;100.00;94561.16;1023313;29;19918;-72
2022/04/22 00:25:58;;;;;;;;;;;;;;;4.77;100.00;94555.97;1019066;29;19926;-72
2022/04/22 00:26:28;;;;;;;;;;;;;;;4.76;100.00;94554.38;1023211;29;20000;-73
2022/04/22 00:26:58;;;;;;;;;;;;;;;4.74;100.00;94551.28;1022349;28;20764;-72
2022/04/22 00:27:30;;;;;;;;;;;;;;;4.74;100.00;94551.28;1015999;29;19912;-72
2022/04/22 00:28:01;;;;;;;;;;;;;;;4.76;100.00;94553.63;1018745;29;19919;-72
2022/04/22 00:28:31;;;;;;;;;;;;;;;4.74;100.00;94551.28;1019746;29;19911;-72
2022/04/22 00:29:02;;;;;;;;;;;;;;;4.75;100.00;94552.06;1019722;28;19914;-71
2022/04/22 00:29:32;;;;;;;;;;;;;;;4.74;100.00;94543.50;1022638;28;19953;-73
2022/04/22 00:30:06;;;;;;;;;;;;;;;4.73;100.00;94545.31;1023069;29;20605;-72
2022/04/22 00:30:36;;;;;;;;;;;;;;;4.75;100.00;94546.88;1023745;28;19914;-72
2022/04/22 00:31:07;;;;;;;;;;;;;;;4.72;100.00;94543.72;1027111;28;19906;-72
2022/04/22 00:31:40;;;;;;;;;;;;;;;4.70;100.00;94547.63;1029078;28;20084;-71
2022/04/22 00:32:10;;;;;;;;;;;;;;;4.70;100.00;94545.81;1030885;28;19971;-72
2022/04/22 00:32:40;;;;;;;;;;;;;;;4.70;100.00;94542.44;1024917;28;19922;-72
2022/04/22 00:33:11;;;;;;;;;;;;;;;4.67;100.00;94545.56;1019249;29;19922;-72
2022/04/22 00:33:41;;;;;;;;;;;;;;;4.69;100.00;94543.47;1019099;29;19923;-72
2022/04/22 00:34:12;;;;;;;;;;;;;;;4.70;100.00;94542.44;1015396;29;19930;-71
2022/04/22 00:34:42;;;;;;;;;;;;;;;4.73;100.00;94549.72;1019480;28;19954;-71
2022/04/22 00:35:12;;;;;;;;;;;;;;;4.72;100.00;94543.72;1027414;28;20549;-72
2022/04/22 00:35:44;;;;;;;;;;;;;;;4.77;100.00;94539.59;1027499;28;19930;-72
2022/04/22 00:36:16;;;;;;;;;;;;;;;4.76;100.00;94546.59;1030372;28;20626;-72
2022/04/22 00:36:47;;;;;;;;;;;;;;;4.76;100.00;94544.00;1026838;28;19928;-72
2022/04/22 00:37:17;;;;;;;;;;;;;;;4.77;100.00;94540.38;1027398;28;19925;-72
2022/04/22 00:37:49;;;;;;;;;;;;;;;4.76;100.00;94543.22;1030795;28;19922;-71
2022/04/22 00:38:21;;;;;;;;;;;;;;;4.77;100.00;94545.59;1027225;28;19922;-72
2022/04/22 00:38:51;;;;;;;;;;;;;;;4.75;100.00;94542.44;1023310;29;19933;-72
2022/04/22 00:39:22;;;;;;;;;;;;;;;4.75;100.00;94547.63;1027110;28;19925;-72
2022/04/22 00:39:55;;;;;;;;;;;;;;;4.75;100.00;94545.03;1027831;28;19922;-72
2022/04/22 00:40:25;;;;;;;;;;;;;;;4.72;100.00;94541.13;1026751;28;19922;-72
2022/04/22 00:40:56;;;;;;;;;;;;;;;4.71;100.00;94541.41;1027740;28;19932;-72
2022/04/22 00:41:26;;;;;;;;;;;;;;;4.73;100.00;94541.94;1027071;28;19918;-72
2022/04/22 00:41:57;;;;;;;;;;;;;;;4.72;100.00;94545.56;1027035;28;19941;-72
2022/04/22 00:42:28;;;;;;;;;;;;;;;4.72;100.00;94537.75;1023023;28;20319;-72
2022/04/22 00:42:59;;;;;;;;;;;;;;;4.68;100.00;94542.69;1015992;28;19935;-72
2022/04/22 00:43:38;;;;;;;;;;;;;;;4.70;100.00;94539.84;1014947;29;19938;-71
2022/04/22 00:44:10;;;;;;;;;;;;;;;4.70;100.00;94539.84;1020557;29;19941;-72
2022/04/22 00:44:41;;;;;;;;;;;;;;;4.70;100.00;94545.03;1021198;28;19930;-73
2022/04/22 00:45:12;;;;;;;;;;;;;;;4.69;100.00;94543.47;1025911;28;19933;-72
2022/04/22 00:45:43;;;;;;;;;;;;;;;4.71;100.00;94541.41;1017043;29;20159;-72
2022/04/22 00:46:13;;;;;;;;;;;;;;;4.70;100.00;94545.03;1022342;28;19918;-73
2022/04/22 00:46:43;;;;;;;;;;;;;;;4.68;100.00;94537.47;1021843;29;19929;-72
2022/04/22 00:47:14;;;;;;;;;;;;;;;4.68;100.00;94542.69;1019102;29;19919;-71
2022/04/22 00:47:44;;;;;;;;;;;;;;;4.67;100.00;94545.56;1023441;29;20324;-72
2022/04/22 00:48:15;;;;;;;;;;;;;;;4.33;100.00;94488.81;1021655;28;19922;-72
2022/04/22 00:48:45;;;;;;;;;;;;;;;4.65;100.00;94538.00;1027121;28;19918;-72
2022/04/22 00:49:15;;;;;;;;;;;;;;;4.66;100.00;94538.78;1031361;28;20386;-72
2022/04/22 00:49:46;;;;;;;;;;;;;;;4.64;100.00;94523.44;1031053;28;19921;-72
2022/04/22 00:50:16;;;;;;;;;;;;;;;4.64;100.00;94535.66;1030934;28;19977;-72
2022/04/22 00:50:46;;;;;;;;;;;;;;;4.63;100.00;94534.88;1033530;28;20506;-72
2022/04/22 00:51:18;;;;;;;;;;;;;;;4.64;100.00;94535.66;1030606;28;19910;-71
2022/04/22 00:51:49;;;;;;;;;;;;;;;4.65;100.00;94532.03;1027719;28;19917;-72
2022/04/22 00:52:19;;;;;;;;;;;;;;;4.64;100.00;94535.66;1019010;29;19961;-72
2022/04/22 00:52:49;;;;;;;;;;;;;;;4.64;100.00;94531.25;1022793;28;20399;-72
2022/04/22 00:53:20;;;;;;;;;;;;;;;4.65;100.00;94538.00;1027401;28;19999;-72
2022/04/22 00:53:51;;;;;;;;;;;;;;;4.66;100.00;94534.38;1030889;28;21522;-72
2022/04/22 00:54:22;;;;;;;;;;;;;;;4.67;100.00;94528.13;1030768;28;20055;-71
2022/04/22 00:54:52;;;;;;;;;;;;;;;4.69;100.00;94530.47;1029964;28;19940;-72
2022/04/22 00:55:22;;;;;;;;;;;;;;;4.66;100.00;94526.59;1027101;28;19954;-72
2022/04/22 00:55:53;;;;;;;;;;;;;;;4.67;100.00;94529.97;1022794;29;19922;-72
2022/04/22 00:56:23;;;;;;;;;;;;;;;4.66;100.00;94524.00;1018068;29;20010;-72
2022/04/22 00:56:53;;;;;;;;;;;;;;;4.64;100.00;94525.28;1018315;29;19953;-72
2022/04/22 00:57:24;;;;;;;;;;;;;;;4.64;100.00;94526.03;1015683;29;19915;-73
2022/04/22 00:57:54;;;;;;;;;;;;;;;4.63;100.00;94519.28;1019057;29;20420;-70
2022/04/22 00:58:24;;;;;;;;;;;;;;;4.62;100.00;94529.94;1019511;29;19915;-71
2022/04/22 00:58:55;;;;;;;;;;;;;;;4.61;100.00;94521.34;1023189;29;19930;-71
2022/04/22 00:59:26;;;;;;;;;;;;;;;4.62;100.00;94527.31;1023167;29;19929;-72
2022/04/22 00:59:56;;;;;;;;;;;;;;;4.61;100.00;94523.97;1027195;28;19914;-72
2022/04/22 01:00:26;;;;;;;;;;;;;;;4.60;100.00;94525.00;1023266;28;19917;-72
2022/04/22 01:00:56;;;;;;;;;;;;;;;4.61;100.00;94520.59;1023045;29;20377;-71
2022/04/22 01:01:27;;;;;;;;;;;;;;;4.60;100.00;94529.41;1025678;28;19918;-72
2022/04/22 01:01:57;;;;;;;;;;;;;;;4.60;100.00;94524.22;1027070;28;19907;-72
2022/04/22 01:02:27;;;;;;;;;;;;;;;4.57;100.00;94525.50;1027071;28;20440;-72
2022/04/22 01:02:58;;;;;;;;;;;;;;;4.57;100.00;94522.91;1027203;28;19925;-71
2022/04/22 01:03:28;;;;;;;;;;;;;;;4.57;100.00;94520.31;1027027;28;19918;-72
2022/04/22 01:09:49;;;;;;;;;;;;;;;4.48;100.00;94517.41;1027205;28;20006;-72
2022/04/22 01:10:19;;;;;;;;;;;;;;;4.47;100.00;94517.69;1023484;28;19923;-72
2022/04/22 01:10:50;;;;;;;;;;;;;;;4.46;100.00;94514.31;1026270;28;19933;-72
2022/04/22 01:11:23;;;;;;;;;;;;;;;4.46;100.00;94516.09;1022877;28;20704;-72
2022/04/22 01:11:53;;;;;;;;;;;;;;;4.13;100.00;94463.53;1022184;28;19926;-72
2022/04/22 01:12:24;;;;;;;;;;;;;;;4.46;100.00;94514.31;1026815;28;19930;-73
2022/04/22 01:12:54;;;;;;;;;;;;;;;4.44;100.00;94516.38;1027348;28;20362;-71
2022/04/22 01:13:24;;;;;;;;;;;;;;;4.44;100.00;94513.75;1031102;28;19913;-72
2022/04/22 01:13:54;;;;;;;;;;;;;;;4.44;100.00;94518.97;1031163;28;19922;-72
2022/04/22 01:14:25;;;;;;;;;;;;;;;4.44;100.00;94521.56;1027150;28;20622;-72
2022/04/22 01:14:56;;;;;;;;;;;;;;;4.45;100.00;94512.72;1031039;28;19918;-72
2022/04/22 01:15:27;;;;;;;;;;;;;;;4.45;100.00;94517.13;1023072;29;19918;-72
2022/04/22 01:15:57;;;;;;;;;;;;;;;4.43;100.00;94512.22;1026797;28;19914;-72
2022/04/22 01:16:28;;;;;;;;;;;;;;;4.44;100.00;94516.38;1030309;28;19938;-73
2022/04/22 01:17:00;;;;;;;;;;;;;;;4.44;100.00;94508.56;1030338;28;20668;-72
2022/04/22 01:17:31;;;;;;;;;;;;;;;4.42;100.00;94512.44;1030759;28;19926;-72
2022/04/22 01:18:01;;;;;;;;;;;;;;;4.42;100.00;94513.22;1029829;28;19945;-73
2022/04/22 01:18:32;;;;;;;;;;;;;;;4.41;100.00;94506.47;1026771;28;19928;-73
2022/04/22 01:19:02;;;;;;;;;;;;;;;4.42;100.00;94505.44;1022456;28;20291;-72
2022/04/22 01:19:32;;;;;;;;;;;;;;;4.42;100.00;94508.03;1022389;28;19922;-72
2022/04/22 01:20:03;;;;;;;;;;;;;;;4.42;100.00;94502.84;1022603;28;19926;-72
2022/04/22 01:20:36;;;;;;;;;;;;;;;4.41;100.00;94509.06;1018551;29;19923;-71
2022/04/22 01:21:06;;;;;;;;;;;;;;;4.42;100.00;94505.44;1018992;28;19931;-72
2022/04/22 01:21:37;;;;;;;;;;;;;;;4.42;100.00;94507.25;1017840;28;19935;-72
2022/04/22 01:22:08;;;;;;;;;;;;;;;4.41;100.00;94503.09;1022762;28;20389;-73
2022/04/22 01:22:38;;;;;;;;;;;;;;;4.39;100.00;94508.56;1030528;28;20483;-72
2022/04/22 01:23:08;;;;;;;;;;;;;;;4.38;100.00;94501.78;1031008;28;19922;-72
2022/04/22 01:23:39;;;;;;;;;;;;;;;4.37;100.00;94499.47;1030508;28;19913;-72
2022/04/22 01:24:09;;;;;;;;;;;;;;;4.35;100.00;94504.88;1030690;28;20388;-73
2022/04/22 01:24:40;;;;;;;;;;;;;;;4.33;100.00;94501.78;1030787;28;20024;-73
2022/04/22 01:25:10;;;;;;;;;;;;;;;4.33;100.00;94499.19;1026867;28;19910;-73
2022/04/22 01:25:41;;;;;;;;;;;;;;;4.32;100.00;94502.03;1022368;28;20332;-73
2022/04/22 01:26:12;;;;;;;;;;;;;;;4.31;100.00;94506.44;1022888;28;20009;-72
2022/04/22 01:26:43;;;;;;;;;;;;;;;4.30;100.00;94501.50;1017098;28;19926;-72
2022/04/22 01:27:13;;;;;;;;;;;;;;;4.30;100.00;94499.69;1018637;29;19945;-72
2022/04/22 01:27:44;;;;;;;;;;;;;;;4.30;100.00;94499.69;1018424;29;19922;-72
2022/04/22 01:28:15;;;;;;;;;;;;;;;4.33;100.00;94504.38;1020401;28;19925;-72
2022/04/22 01:28:45;;;;;;;;;;;;;;;4.31;100.00;94501.25;1022769;28;19929;-73
2022/04/22 01:29:15;;;;;;;;;;;;;;;4.29;100.00;94503.31;1030311;28;20020;-73
2022/04/22 01:29:46;;;;;;;;;;;;;;;4.29;100.00;94494.72;1024069;28;20407;-72
2022/04/22 01:30:25;;;;;;;;;;;;;;;4.28;100.00;94495.78;1020501;29;20005;-73
2022/04/22 01:30:56;;;;;;;;;;;;;;;4.30;100.00;94498.91;1022817;29;19922;-73
2022/04/22 01:31:26;;;;;;;;;;;;;;;4.31;100.00;94495.28;1024098;28;20289;-73
2022/04/22 01:31:56;;;;;;;;;;;;;;;4.29;100.00;94495.50;1026562;28;19965;-73
2022/04/22 01:32:27;;;;;;;;;;;;;;;4.28;100.00;94496.56;1022803;28;19926;-73
2022/04/22 01:32:57;;;;;;;;;;;;;;;4.25;100.00;94497.06;1027003;28;19921;-73
2022/04/22 01:33:27;;;;;;;;;;;;;;;4.24;100.00;94490.31;1022927;28;19949;-73
2022/04/22 01:33:59;;;;;;;;;;;;;;;3.91;100.00;94444.72;1018893;29;19947;-72
2022/04/22 01:34:29;;;;;;;;;;;;;;;4.23;100.00;94493.94;1021663;28;20017;-72
2022/04/22 01:34:59;;;;;;;;;;;;;;;4.23;100.00;94494.72;1016337;29;19922;-73
2022/04/22 01:35:30;;;;;;;;;;;;;;;4.22;100.00;94492.38;1015176;29;19942;-72
2022/04/22 01:36:00;;;;;;;;;;;;;;;4.20;100.00;94489.25;1022563;28;20351;-73
2022/04/22 01:36:30;;;;;;;;;;;;;;;4.20;100.00;94494.47;1015777;29;19915;-72
2022/04/22 01:37:01;;;;;;;;;;;;;;;4.20;100.00;94486.66;1022227;29;19927;-72
2022/04/22 01:37:32;;;;;;;;;;;;;;;4.18;100.00;94497.28;1026961;28;20193;-72
2022/04/22 01:38:02;;;;;;;;;;;;;;;4.18;100.00;94486.13;1030668;28;19922;-72
2022/04/22 01:38:33;;;;;;;;;;;;;;;4.17;100.00;94494.97;1034871;28;19922;-74
2022/04/22 01:39:03;;;;;;;;;;;;;;;4.16;100.00;94490.81;1034864;28;19925;-72
2022/04/22 01:39:33;;;;;;;;;;;;;;;4.16;100.00;94491.59;1030865;28;19918;-72
2022/04/22 01:40:04;;;;;;;;;;;;;;;4.15;100.00;94490.00;1024404;28;19957;-72
2022/04/22 01:40:34;;;;;;;;;;;;;;;4.13;100.00;94483.53;1022704;29;20010;-72
2022/04/22 01:41:04;;;;;;;;;;;;;;;4.12;100.00;94485.31;1020046;28;20405;-72
2022/04/22 01:41:35;;;;;;;;;;;;;;;4.11;100.00;94490.78;1025927;28;19918;-72
2022/04/22 01:42:06;;;;;;;;;;;;;;;4.10;100.00;94489.22;1026713;28;20470;-72
2022/04/22 01:42:36;;;;;;;;;;;;;;;4.07;100.00;94490.50;1023186;28;20425;-72
2022/04/22 01:43:08;;;;;;;;;;;;;;;4.08;100.00;94486.09;1026912;28;19979;-73
2022/04/22 01:43:40;;;;;;;;;;;;;;;4.08;100.00;94483.47;1026977;28;19910;-72
2022/04/22 01:44:10;;;;;;;;;;;;;;;4.08;100.00;94491.28;1027139;28;19918;-72
2022/04/22 01:44:40;;;;;;;;;;;;;;;4.07;100.00;94484.53;1022678;28;19925;-73
2022/04/22 01:45:12;;;;;;;;;;;;;;;4.05;100.00;94484.75;1020483;29;19970;-73
2022/04/22 01:45:42;;;;;;;;;;;;;;;4.05;100.00;94484.00;1018802;29;19915;-73
2022/04/22 01:46:14;;;;;;;;;;;;;;;4.04;100.00;94475.44;1019919;28;19919;-72
2022/04/22 01:46:45;;;;;;;;;;;;;;;4.03;100.00;94483.47;1022256;28;19949;-73
2022/04/22 01:47:15;;;;;;;;;;;;;;;4.04;100.00;94477.25;1010676;29;19926;-73
2022/04/22 01:47:45;;;;;;;;;;;;;;;4.05;100.00;94476.19;1011522;29;20333;-72
2022/04/22 01:48:16;;;;;;;;;;;;;;;4.05;100.00;94486.59;1018906;28;19929;-72
2022/04/22 01:48:46;;;;;;;;;;;;;;;4.04;100.00;94472.06;1022495;28;19918;-73
2022/04/22 01:49:16;;;;;;;;;;;;;;;4.04;100.00;94474.66;1031100;28;19922;-73
2022/04/22 01:49:47;;;;;;;;;;;;;;;4.06;100.00;94477.75;1024494;28;19922;-73
2022/04/22 01:50:17;;;;;;;;;;;;;;;4.05;100.00;94478.78;1024969;28;20348;-72
2022/04/22 01:50:47;;;;;;;;;;;;;;;4.06;100.00;94480.34;1030948;28;19921;-72
2022/04/22 01:51:18;;;;;;;;;;;;;;;4.04;100.00;94470.22;1029715;28;20499;-72
2022/04/22 01:51:51;;;;;;;;;;;;;;;4.05;100.00;94471.78;1030955;28;19968;-72
2022/04/22 01:52:21;;;;;;;;;;;;;;;4.05;100.00;94476.19;1030657;28;19920;-73
2022/04/22 01:52:52;;;;;;;;;;;;;;;4.01;100.00;94476.69;1029040;28;20017;-71
2022/04/22 01:53:22;;;;;;;;;;;;;;;4.04;100.00;94474.66;1025395;28;19990;-72
2022/04/22 01:53:53;;;;;;;;;;;;;;;4.03;100.00;94473.09;1028928;28;20010;-73
2022/04/22 01:54:24;;;;;;;;;;;;;;;4.01;100.00;94466.31;1024444;28;19918;-72
2022/04/22 01:54:56;;;;;;;;;;;;;;;4.03;100.00;94467.91;1028526;28;19926;-73
2022/04/22 01:55:29;;;;;;;;;;;;;;;4.03;100.00;94467.91;1024589;28;20384;-73
2022/04/22 01:55:59;;;;;;;;;;;;;;;4.05;100.00;94465.81;1019321;29;20304;-72
2022/04/22 01:56:29;;;;;;;;;;;;;;;4.03;100.00;94470.50;1016119;29;19919;-72
2022/04/22 01:57:00;;;;;;;;;;;;;;;4.03;100.00;94471.28;1018496;28;19926;-73
2022/04/22 01:57:33;;;;;;;;;;;;;;;4.04;100.00;94466.88;1024453;28;20244;-73
2022/04/22 01:58:03;;;;;;;;;;;;;;;4.00;100.00;94469.19;1027650;28;19996;-72
2022/04/22 01:58:34;;;;;;;;;;;;;;;4.00;100.00;94472.56;1028051;28;20397;-73
2022/04/22 01:59:04;;;;;;;;;;;;;;;4.01;100.00;94461.13;1031449;28;19921;-72
2022/04/22 01:59:35;;;;;;;;;;;;;;;4.01;100.00;94461.13;1023156;28;19918;-72
2022/04/22 02:00:06;;;;;;;;;;;;;;;4.04;100.00;94464.25;1019433;29;19926;-72
2022/04/22 02:00:36;;;;;;;;;;;;;;;4.03;100.00;94462.72;1019353;29;20285;-73
2022/04/22 02:01:06;;;;;;;;;;;;;;;4.03;100.00;94467.91;1019857;28;20022;-73
2022/04/22 02:01:37;;;;;;;;;;;;;;;4.00;100.00;94464.78;1023738;28;19928;-72
2022/04/22 02:02:07;;;;;;;;;;;;;;;4.00;100.00;94459.56;1027477;28;19926;-73
2022/04/22 02:02:37;;;;;;;;;;;;;;;3.98;100.00;94464.22;1027508;28;19922;-73
2022/04/22 02:03:08;;;;;;;;;;;;;;;3.98;100.00;94455.66;1027520;28;20375;-73
2022/04/22 02:03:38;;;;;;;;;;;;;;;3.99;100.00;94460.63;1031522;28;19922;-72
2022/04/22 02:04:08;;;;;;;;;;;;;;;3.98;100.00;94460.84;1027934;28;20613;-72
2022/04/22 02:04:39;;;;;;;;;;;;;;;3.99;100.00;94458.03;1023586;28;20328;-72
2022/04/22 02:05:09;;;;;;;;;;;;;;;3.99;100.00;94459.81;1023416;28;20074;-72
2022/04/22 02:05:40;;;;;;;;;;;;;;;4.00;100.00;94456.22;1023617;28;19925;-72
2022/04/22 02:06:10;;;;;;;;;;;;;;;4.00;100.00;94459.56;1027749;28;19918;-72
2022/04/22 02:06:41;;;;;;;;;;;;;;;4.00;100.00;94453.59;1027093;28;19928;-72
2022/04/22 02:07:11;;;;;;;;;;;;;;;3.99;100.00;94454.63;1031290;28;19925;-72
2022/04/22 02:07:42;;;;;;;;;;;;;;;3.96;100.00;94452.56;1027468;28;19918;-72
2022/04/22 02:08:12;;;;;;;;;;;;;;;3.96;100.00;94453.34;1019729;29;19918;-73
2022/04/22 02:08:44;;;;;;;;;;;;;;;3.96;100.00;94458.53;1015870;29;20014;-72
2022/04/22 02:09:14;;;;;;;;;;;;;;;3.96;100.00;94457.75;1019344;29;19966;-72
2022/04/22 02:09:45;;;;;;;;;;;;;;;3.94;100.00;94459.81;1020343;28;20348;-73
2022/04/22 02:10:15;;;;;;;;;;;;;;;3.95;100.00;94462.13;1023759;28;19977;-72
2022/04/22 02:10:47;;;;;;;;;;;;;;;3.96;100.00;94463.72;1019426;29;19942;-72
2022/04/22 02:11:17;;;;;;;;;;;;;;;3.96;100.00;94471.50;1019509;29;20017;-73
2022/04/22 02:11:47;;;;;;;;;;;;;;;3.97;100.00;94467.09;1023101;28;19919;-73
2022/04/22 02:12:17;;;;;;;;;;;;;;;3.97;100.00;94464.50;1030000;28;19918;-73
2022/04/22 02:12:51;;;;;;;;;;;;;;;3.94;100.00;94470.97;1031330;28;19925;-73
2022/04/22 02:13:21;;;;;;;;;;;;;;;3.92;100.00;94467.03;1027633;28;19964;-72
2022/04/22 02:13:51;;;;;;;;;;;;;;;3.91;100.00;94463.69;1028469;28;19918;-73
2022/04/22 02:14:22;;;;;;;;;;;;;;;3.90;100.00;94466.53;1027590;28;20371;-73
2022/04/22 02:14:53;;;;;;;;;;;;;;;3.90;100.00;94469.13;1027554;28;20471;-72
2022/04/22 02:15:24;;;;;;;;;;;;;;;3.89;100.00;94463.16;1023811;28;19918;-73
2022/04/22 02:15:54;;;;;;;;;;;;;;;3.94;100.00;94463.19;1027479;28;19950;-72
2022/04/22 02:16:25;;;;;;;;;;;;;;;3.91;100.00;94458.50;1027631;28;19941;-73
2022/04/22 02:16:55;;;;;;;;;;;;;;;3.93;100.00;94460.84;1026816;28;20000;-73
2022/04/22 02:17:26;;;;;;;;;;;;;;;3.92;100.00;94467.84;1029451;28;19981;-72
2022/04/22 02:17:56;;;;;;;;;;;;;;;3.91;100.00;94468.88;1031599;28;19936;-72
2022/04/22 02:18:30;;;;;;;;;;;;;;;3.90;100.00;94461.34;1031720;28;20319;-73
2022/04/22 02:19:01;;;;;;;;;;;;;;;3.91;100.00;94470.69;1030815;28;20008;-73
2022/04/22 02:19:31;;;;;;;;;;;;;;;3.89;100.00;94470.94;1027692;28;19949;-73
2022/04/22 02:20:02;;;;;;;;;;;;;;;3.89;100.00;94468.34;1027455;28;19921;-73
2022/04/22 02:20:33;;;;;;;;;;;;;;;3.87;100.00;94467.81;1027846;28;19922;-74
2022/04/22 02:21:04;;;;;;;;;;;;;;;3.86;100.00;94474.03;1023476;28;19914;-73
2022/04/22 02:21:34;;;;;;;;;;;;;;;3.86;100.00;94470.66;1023492;29;19997;-72
2022/04/22 02:22:05;;;;;;;;;;;;;;;3.83;100.00;94474.53;1023606;28;20394;-72
2022/04/22 02:22:35;;;;;;;;;;;;;;;3.82;100.00;94467.78;1021663;28;19915;-72
2022/04/22 02:23:05;;;;;;;;;;;;;;;3.81;100.00;94468.81;1031259;28;20277;-73
2022/04/22 02:23:36;;;;;;;;;;;;;;;3.81;100.00;94468.81;1023752;29;19949;-73
2022/04/22 02:24:06;;;;;;;;;;;;;;;3.82;100.00;94464.41;1023274;28;20281;-73
2022/04/22 02:24:36;;;;;;;;;;;;;;;3.82;100.00;94465.19;1027590;28;19914;-73
2022/04/22 02:25:13;;;;;;;;;;;;;;;3.81;100.00;94465.44;1027610;28;19914;-72
2022/04/22 02:25:43;;;;;;;;;;;;;;;3.78;100.00;94466.72;1024172;28;19914;-72
2022/04/22 02:26:13;;;;;;;;;;;;;;;3.80;100.00;94464.66;1023460;28;19942;-72
2022/04/22 02:28:34;;;;;;;;;;;;;;;3.73;100.00;94470.06;1031356;28;20427;-72
2022/04/22 02:29:04;;;;;;;;;;;;;;;3.72;100.00;94462.53;1031766;28;20004;-72
2022/04/22 02:29:37;;;;;;;;;;;;;;;3.72;100.00;94462.53;1031419;28;19926;-73
2022/04/22 02:30:07;;;;;;;;;;;;;;;3.71;100.00;94464.34;1031632;28;20422;-73
2022/04/22 02:30:38;;;;;;;;;;;;;;;3.70;100.00;94464.59;1023532;28;19934;-72
2022/04/22 02:31:09;;;;;;;;;;;;;;;3.70;100.00;94465.38;1018318;29;19922;-72
2022/04/22 02:31:39;;;;;;;;;;;;;;;3.69;100.00;94465.63;1015758;29;19923;-72
2022/04/22 02:32:10;;;;;;;;;;;;;;;3.75;100.00;94460.22;1015606;29;20381;-73
2022/04/22 02:32:40;;;;;;;;;;;;;;;3.74;100.00;94460.47;1015602;29;19926;-72
2022/04/22 02:33:11;;;;;;;;;;;;;;;3.73;100.00;94464.09;1019647;29;19926;-73
2022/04/22 02:33:42;;;;;;;;;;;;;;;3.71;100.00;94460.97;1023532;29;19922;-73
2022/04/22 02:34:12;;;;;;;;;;;;;;;3.70;100.00;94456.81;1023632;28;20376;-72
2022/04/22 02:34:43;;;;;;;;;;;;;;;3.68;100.00;94458.88;1027702;28;19997;-73
2022/04/22 02:35:13;;;;;;;;;;;;;;;3.68;100.00;94456.28;1027428;28;19918;-71
2022/04/22 02:35:44;;;;;;;;;;;;;;;3.67;100.00;94457.31;1023823;29;19923;-73
2022/04/22 02:36:15;;;;;;;;;;;;;;;3.65;100.00;94467.16;1026332;28;19918;-72
2022/04/22 02:36:46;;;;;;;;;;;;;;;3.67;100.00;94465.88;1023428;28;20209;-73
2022/04/22 02:37:16;;;;;;;;;;;;;;;3.64;100.00;94461.19;1024193;28;19922;-73
2022/04/22 02:37:47;;;;;;;;;;;;;;;3.63;100.00;94462.22;1027999;28;19924;-73
2022/04/22 02:38:17;;;;;;;;;;;;;;;3.63;100.00;94458.88;1024265;29;19918;-73
2022/04/22 02:38:51;;;;;;;;;;;;;;;3.64;100.00;94457.81;1025130;28;20308;-73
2022/04/22 02:39:21;;;;;;;;;;;;;;;3.64;100.00;94457.81;1023537;28;20143;-73
2022/04/22 02:39:51;;;;;;;;;;;;;;;3.62;100.00;94452.09;1024564;28;19946;-73
2022/04/22 02:45:28;;;;;;;;;;;;;;;3.70;100.00;94454.22;1029010;28;19948;-73
2022/04/22 02:46:01;;;;;;;;;;;;;;;3.68;100.00;94451.09;1027545;28;19914;-72
2022/04/22 02:46:32;;;;;;;;;;;;;;;3.66;100.00;94453.19;1028309;28;20025;-73
2022/04/22 02:47:03;;;;;;;;;;;;;;;3.64;100.00;94452.63;1026690;28;19918;-73
2022/04/22 02:47:34;;;;;;;;;;;;;;;3.62;100.00;94450.31;1023618;29;20347;-73
2022/04/22 02:48:04;;;;;;;;;;;;;;;3.63;100.00;94448.50;1026117;28;19969;-74
2022/04/22 02:48:35;;;;;;;;;;;;;;;3.64;100.00;94445.63;1027696;28;19910;-73
2022/04/22 02:49:05;;;;;;;;;;;;;;;3.65;100.00;94446.41;1027461;28;20285;-72
2022/04/22 02:49:35;;;;;;;;;;;;;;;3.67;100.00;94446.94;1026575;28;19915;-72
2022/04/22 02:50:06;;;;;;;;;;;;;;;3.65;100.00;94454.97;1023417;28;19910;-73
2022/04/22 02:50:36;;;;;;;;;;;;;;;3.67;100.00;94444.34;1023714;29;19922;-73
2022/04/22 02:51:06;;;;;;;;;;;;;;;3.66;100.00;94440.97;1023401;28;19906;-72
2022/04/22 02:51:37;;;;;;;;;;;;;;;3.66;100.00;94440.22;1022713;28;20424;-73
2022/04/22 02:52:07;;;;;;;;;;;;;;;3.64;100.00;94444.84;1023661;29;19907;-73
2022/04/22 02:52:37;;;;;;;;;;;;;;;3.63;100.00;94444.06;1019457;29;20362;-72
2022/04/22 02:53:08;;;;;;;;;;;;;;;3.64;100.00;94440.44;1019316;29;19918;-73
2022/04/22 02:53:38;;;;;;;;;;;;;;;3.62;100.00;94439.94;1027899;28;19914;-73